createdAt,value
2023-03-12T00:00:03.139Z,75.00
2023-03-12T00:01:03.416Z,75.00
2023-03-12T00:02:04.037Z,75.00
2023-03-12T00:03:03.942Z,75.00
2023-03-12T00:04:04.207Z,75.00
2023-03-12T00:05:03.495Z,75.00
2023-03-12T00:06:10.205Z,75.00
2023-03-12T00:07:04.265Z,75.00
2023-03-12T00:08:04.162Z,75.00
2023-03-12T00:09:04.014Z,75.00
2023-03-12T00:10:04.168Z,75.00
2023-03-12T00:11:02.649Z,75.00
2023-03-12T00:12:02.347Z,75.00
2023-03-12T00:13:02.483Z,75.00
2023-03-12T00:14:02.497Z,74.00
2023-03-12T00:15:02.038Z,74.00
2023-03-12T00:16:02.387Z,74.00
2023-03-12T00:17:02.604Z,74.00
2023-03-12T00:18:03.098Z,74.00
2023-03-12T00:19:02.688Z,74.00
2023-03-12T00:20:02.695Z,74.00
2023-03-12T00:21:02.925Z,74.00
2023-03-12T00:22:02.348Z,74.00
2023-03-12T00:23:02.158Z,73.00
2023-03-12T00:24:01.957Z,74.00
2023-03-12T00:25:02.081Z,74.00
2023-03-12T00:26:01.759Z,73.00
2023-03-12T00:27:02.378Z,73.00
2023-03-12T00:28:02.341Z,73.00
2023-03-12T00:29:02.145Z,72.00
2023-03-12T00:30:02.283Z,72.00
2023-03-12T00:31:02.496Z,72.00
2023-03-12T00:32:02.222Z,72.00
2023-03-12T00:33:02.395Z,72.00
2023-03-12T00:34:02.707Z,72.00
2023-03-12T00:35:02.828Z,72.00
2023-03-12T00:36:02.870Z,72.00
2023-03-12T00:37:01.646Z,72.00
2023-03-12T00:38:01.999Z,72.00
2023-03-12T00:39:01.653Z,71.00
2023-03-12T00:40:02.059Z,71.00
2023-03-12T00:41:01.654Z,71.00
2023-03-12T00:42:02.366Z,71.00
2023-03-12T00:43:02.075Z,71.00
2023-03-12T00:44:02.388Z,72.00
2023-03-12T00:45:02.203Z,72.00
2023-03-12T00:46:01.937Z,72.00
2023-03-12T00:47:02.427Z,72.00
2023-03-12T00:48:02.321Z,71.00
2023-03-12T00:49:02.811Z,71.00
2023-03-12T00:50:02.749Z,71.00
2023-03-12T00:51:02.446Z,71.00
2023-03-12T00:52:02.216Z,70.00
2023-03-12T00:53:01.854Z,70.00
2023-03-12T00:54:02.239Z,70.00
2023-03-12T00:55:02.125Z,70.00
2023-03-12T00:56:02.269Z,70.00
2023-03-12T00:57:02.356Z,70.00
2023-03-12T00:58:02.793Z,70.00
2023-03-12T00:59:02.386Z,70.00
2023-03-12T01:00:02.899Z,71.00
2023-03-12T01:01:02.773Z,71.00
2023-03-12T01:02:02.372Z,71.00
2023-03-12T01:03:02.390Z,71.00
2023-03-12T01:04:01.906Z,72.00
2023-03-12T01:05:02.208Z,72.00
2023-03-12T01:06:02.057Z,72.00
2023-03-12T01:07:02.428Z,72.00
2023-03-12T01:08:02.326Z,73.00
2023-03-12T01:09:02.627Z,73.00
2023-03-12T01:10:02.338Z,73.00
2023-03-12T01:11:02.591Z,73.00
2023-03-12T01:12:02.371Z,73.00
2023-03-12T01:13:01.958Z,73.00
2023-03-12T01:14:01.793Z,73.00
2023-03-12T01:15:02.292Z,73.00
2023-03-12T01:16:01.821Z,73.00
2023-03-12T01:17:02.088Z,72.00
2023-03-12T01:18:02.339Z,72.00
2023-03-12T01:19:01.808Z,72.00
2023-03-12T01:20:02.357Z,72.00
2023-03-12T01:21:01.900Z,72.00
2023-03-12T01:22:02.444Z,72.00
2023-03-12T01:23:02.058Z,72.00
2023-03-12T01:24:02.449Z,71.00
2023-03-12T01:25:02.631Z,71.00
2023-03-12T01:26:02.228Z,71.00
2023-03-12T01:27:02.485Z,71.00
2023-03-12T01:28:02.317Z,71.00
2023-03-12T01:29:02.759Z,71.00
2023-03-12T01:30:02.417Z,71.00
2023-03-12T01:31:02.389Z,71.00
2023-03-12T01:32:01.792Z,71.00
2023-03-12T01:33:01.555Z,70.00
2023-03-12T01:34:01.682Z,70.00
2023-03-12T01:35:01.490Z,70.00
2023-03-12T01:36:01.954Z,70.00
2023-03-12T01:37:02.049Z,70.00
2023-03-12T01:38:02.323Z,70.00
2023-03-12T01:39:02.344Z,70.00
2023-03-12T01:40:02.016Z,70.00
2023-03-12T01:41:02.353Z,70.00
2023-03-12T01:42:02.021Z,70.00
2023-03-12T01:43:01.529Z,70.00
2023-03-12T01:44:01.620Z,70.00
2023-03-12T01:45:02.034Z,70.00
2023-03-12T01:46:01.736Z,70.00
2023-03-12T01:47:01.861Z,70.00
2023-03-12T01:48:02.222Z,70.00
2023-03-12T01:49:02.418Z,70.00
2023-03-12T01:50:02.300Z,70.00
2023-03-12T01:51:01.840Z,69.00
2023-03-12T01:52:02.334Z,69.00
2023-03-12T01:53:02.402Z,69.00
2023-03-12T01:54:02.460Z,69.00
2023-03-12T01:55:02.404Z,69.00
2023-03-12T01:56:02.251Z,69.00
2023-03-12T01:57:02.301Z,69.00
2023-03-12T01:58:02.432Z,69.00
2023-03-12T01:59:02.645Z,68.00
2023-03-12T02:00:02.362Z,68.00
2023-03-12T02:01:02.573Z,68.00
2023-03-12T02:02:02.793Z,69.00
2023-03-12T02:03:02.630Z,68.00
2023-03-12T02:04:03.072Z,68.00
2023-03-12T02:05:02.585Z,69.00
2023-03-12T02:06:02.838Z,69.00
2023-03-12T02:07:02.885Z,69.00
2023-03-12T02:08:03.320Z,69.00
2023-03-12T02:09:02.917Z,69.00
2023-03-12T02:10:02.991Z,69.00
2023-03-12T02:11:03.390Z,69.00
2023-03-12T02:12:02.587Z,69.00
2023-03-12T02:13:02.275Z,69.00
2023-03-12T02:14:02.614Z,69.00
2023-03-12T02:15:02.381Z,69.00
2023-03-12T02:16:02.114Z,69.00
2023-03-12T02:17:02.752Z,69.00
2023-03-12T02:18:02.926Z,69.00
2023-03-12T02:19:03.248Z,69.00
2023-03-12T02:20:02.904Z,69.00
2023-03-12T02:21:03.013Z,69.00
2023-03-12T02:22:02.480Z,69.00
2023-03-12T02:23:02.120Z,69.00
2023-03-12T02:24:02.468Z,68.00
2023-03-12T02:25:02.010Z,68.00
2023-03-12T02:26:02.192Z,68.00
2023-03-12T02:27:02.416Z,68.00
2023-03-12T02:28:02.540Z,68.00
2023-03-12T02:29:02.478Z,68.00
2023-03-12T02:30:02.205Z,68.00
2023-03-12T02:31:02.503Z,68.00
2023-03-12T02:32:02.565Z,67.00
2023-03-12T02:33:02.809Z,68.00
2023-03-12T02:34:02.771Z,67.00
2023-03-12T02:35:02.469Z,67.00
2023-03-12T02:36:02.921Z,67.00
2023-03-12T02:37:03.031Z,67.00
2023-03-12T02:38:02.867Z,67.00
2023-03-12T02:39:02.913Z,67.00
2023-03-12T02:40:03.026Z,67.00
2023-03-12T02:41:02.935Z,67.00
2023-03-12T02:42:02.647Z,67.00
2023-03-12T02:43:02.154Z,67.00
2023-03-12T02:44:02.268Z,67.00
2023-03-12T02:45:02.067Z,67.00
2023-03-12T02:46:02.441Z,67.00
2023-03-12T02:47:02.683Z,67.00
2023-03-12T02:48:02.479Z,66.00
2023-03-12T02:49:02.365Z,66.00
2023-03-12T02:50:02.720Z,66.00
2023-03-12T02:51:02.645Z,66.00
2023-03-12T02:52:02.631Z,66.00
2023-03-12T02:53:02.965Z,66.00
2023-03-12T02:54:02.653Z,66.00
2023-03-12T02:55:02.693Z,66.00
2023-03-12T02:56:02.387Z,66.00
2023-03-12T02:57:01.817Z,66.00
2023-03-12T02:58:02.270Z,66.00
2023-03-12T02:59:04.340Z,66.00
2023-03-12T03:00:02.275Z,66.00
2023-03-12T03:01:02.059Z,66.00
2023-03-12T03:02:03.173Z,66.00
2023-03-12T03:03:03.106Z,66.00
2023-03-12T03:04:03.434Z,66.00
2023-03-12T03:05:02.921Z,66.00
2023-03-12T03:06:03.399Z,66.00
2023-03-12T03:07:02.499Z,66.00
2023-03-12T03:08:02.640Z,66.00
2023-03-12T03:09:02.563Z,66.00
2023-03-12T03:10:02.251Z,66.00
2023-03-12T03:11:02.491Z,66.00
2023-03-12T03:12:02.800Z,66.00
2023-03-12T03:13:02.791Z,66.00
2023-03-12T03:14:02.482Z,66.00
2023-03-12T03:15:02.772Z,66.00
2023-03-12T03:16:02.745Z,66.00
2023-03-12T03:17:02.518Z,65.00
2023-03-12T03:18:02.925Z,65.00
2023-03-12T03:19:02.857Z,66.00
2023-03-12T03:20:02.862Z,65.00
2023-03-12T03:21:02.420Z,65.00
2023-03-12T03:22:02.832Z,66.00
2023-03-12T03:23:02.573Z,66.00
2023-03-12T03:24:03.033Z,65.00
2023-03-12T03:25:03.093Z,65.00
2023-03-12T03:26:02.561Z,65.00
2023-03-12T03:27:02.370Z,65.00
2023-03-12T03:28:02.386Z,65.00
2023-03-12T03:29:02.538Z,65.00
2023-03-12T03:30:02.022Z,65.00
2023-03-12T03:31:02.096Z,65.00
2023-03-12T03:32:02.674Z,65.00
2023-03-12T03:33:02.749Z,65.00
2023-03-12T03:34:02.743Z,64.00
2023-03-12T03:35:02.756Z,64.00
2023-03-12T03:36:02.596Z,65.00
2023-03-12T03:37:02.797Z,64.00
2023-03-12T03:38:02.370Z,65.00
2023-03-12T03:39:02.720Z,65.00
2023-03-12T03:40:02.694Z,64.00
2023-03-12T03:41:02.195Z,65.00
2023-03-12T03:42:02.469Z,64.00
2023-03-12T03:43:02.944Z,65.00
2023-03-12T03:44:02.838Z,64.00
2023-03-12T03:45:02.943Z,64.00
2023-03-12T03:46:02.632Z,64.00
2023-03-12T03:47:02.791Z,64.00
2023-03-12T03:48:02.607Z,64.00
2023-03-12T03:49:02.601Z,64.00
2023-03-12T03:50:03.731Z,64.00
2023-03-12T03:51:02.499Z,64.00
2023-03-12T03:52:02.120Z,64.00
2023-03-12T03:53:02.545Z,64.00
2023-03-12T03:54:02.566Z,64.00
2023-03-12T03:55:02.082Z,64.00
2023-03-12T03:56:02.312Z,65.00
2023-03-12T03:57:03.095Z,65.00
2023-03-12T03:58:02.779Z,64.00
2023-03-12T03:59:03.052Z,64.00
2023-03-12T04:00:03.904Z,64.00
2023-03-12T04:01:02.898Z,65.00
2023-03-12T04:02:03.268Z,65.00
2023-03-12T04:03:03.637Z,65.00
2023-03-12T04:04:03.214Z,65.00
2023-03-12T04:05:03.807Z,64.00
2023-03-12T04:06:03.265Z,65.00
2023-03-12T04:07:03.037Z,65.00
2023-03-12T04:08:02.724Z,64.00
2023-03-12T04:09:02.841Z,64.00
2023-03-12T04:10:03.053Z,64.00
2023-03-12T04:11:02.999Z,64.00
2023-03-12T04:12:03.379Z,64.00
2023-03-12T04:13:03.592Z,64.00
2023-03-12T04:14:03.205Z,64.00
2023-03-12T04:15:03.344Z,64.00
2023-03-12T04:16:03.204Z,63.00
2023-03-12T04:17:02.626Z,64.00
2023-03-12T04:18:02.372Z,64.00
2023-03-12T04:19:02.610Z,64.00
2023-03-12T04:20:02.840Z,64.00
2023-03-12T04:21:02.301Z,64.00
2023-03-12T04:22:02.984Z,64.00
2023-03-12T04:23:02.734Z,64.00
2023-03-12T04:24:03.138Z,64.00
2023-03-12T04:25:03.357Z,64.00
2023-03-12T04:26:02.950Z,64.00
2023-03-12T04:27:03.522Z,64.00
2023-03-12T04:28:03.258Z,64.00
2023-03-12T04:29:03.369Z,64.00
2023-03-12T04:30:03.718Z,64.00
2023-03-12T04:31:03.800Z,64.00
2023-03-12T04:32:02.959Z,63.00
2023-03-12T04:33:03.128Z,63.00
2023-03-12T04:34:03.125Z,64.00
2023-03-12T04:35:03.043Z,64.00
2023-03-12T04:36:03.350Z,64.00
2023-03-12T04:37:02.417Z,63.00
2023-03-12T04:38:02.657Z,64.00
2023-03-12T04:39:02.556Z,63.00
2023-03-12T04:40:02.800Z,63.00
2023-03-12T04:41:02.801Z,63.00
2023-03-12T04:42:02.810Z,63.00
2023-03-12T04:43:02.696Z,63.00
2023-03-12T04:44:02.994Z,63.00
2023-03-12T04:45:02.653Z,63.00
2023-03-12T04:46:02.536Z,63.00
2023-03-12T04:47:02.673Z,63.00
2023-03-12T04:48:03.236Z,64.00
2023-03-12T04:49:02.727Z,63.00
2023-03-12T04:50:03.010Z,63.00
2023-03-12T04:51:02.727Z,63.00
2023-03-12T04:52:03.379Z,63.00
2023-03-12T04:53:02.869Z,63.00
2023-03-12T04:54:02.792Z,64.00
2023-03-12T04:55:02.864Z,64.00
2023-03-12T04:56:02.980Z,64.00
2023-03-12T04:57:02.700Z,64.00
2023-03-12T04:58:02.623Z,64.00
2023-03-12T04:59:02.414Z,64.00
2023-03-12T05:00:02.786Z,64.00
2023-03-12T05:01:02.645Z,64.00
2023-03-12T05:02:01.898Z,64.00
2023-03-12T05:03:01.961Z,65.00
2023-03-12T05:04:01.686Z,64.00
2023-03-12T05:05:01.912Z,65.00
2023-03-12T05:06:02.221Z,65.00
2023-03-12T05:07:01.831Z,66.00
2023-03-12T05:08:02.059Z,66.00
2023-03-12T05:09:02.445Z,67.00
2023-03-12T05:10:02.190Z,68.00
2023-03-12T05:11:01.813Z,69.00
2023-03-12T05:12:02.515Z,69.00
2023-03-12T05:13:02.137Z,69.00
2023-03-12T05:14:02.213Z,70.00
2023-03-12T05:15:02.704Z,70.00
2023-03-12T05:16:02.409Z,71.00
2023-03-12T05:17:01.800Z,72.00
2023-03-12T05:18:01.770Z,73.00
2023-03-12T05:19:01.972Z,73.00
2023-03-12T05:20:02.233Z,74.00
2023-03-12T05:21:01.773Z,74.00
2023-03-12T05:22:02.398Z,74.00
2023-03-12T05:23:02.597Z,74.00
2023-03-12T05:24:02.388Z,75.00
2023-03-12T05:25:02.690Z,75.00
2023-03-12T05:26:02.637Z,76.00
2023-03-12T05:27:02.011Z,77.00
2023-03-12T05:28:01.821Z,77.00
2023-03-12T05:29:01.538Z,77.00
2023-03-12T05:30:01.679Z,78.00
2023-03-12T05:31:01.849Z,78.00
2023-03-12T05:32:02.304Z,78.00
2023-03-12T05:33:02.022Z,79.00
2023-03-12T05:34:02.254Z,79.00
2023-03-12T05:35:02.098Z,80.00
2023-03-12T05:36:01.991Z,80.00
2023-03-12T05:37:02.428Z,80.00
2023-03-12T05:38:02.055Z,81.00
2023-03-12T05:39:02.277Z,81.00
2023-03-12T05:40:01.852Z,81.00
2023-03-12T05:41:01.982Z,81.00
2023-03-12T05:42:02.642Z,81.00
2023-03-12T05:43:02.157Z,81.00
2023-03-12T05:44:02.060Z,81.00
2023-03-12T05:45:02.034Z,81.00
2023-03-12T05:46:02.558Z,81.00
2023-03-12T05:47:02.635Z,81.00
2023-03-12T05:48:02.324Z,81.00
2023-03-12T05:49:02.484Z,81.00
2023-03-12T05:50:02.236Z,81.00
2023-03-12T05:51:02.466Z,81.00
2023-03-12T05:52:02.286Z,81.00
2023-03-12T05:53:01.940Z,81.00
2023-03-12T05:54:01.740Z,81.00
2023-03-12T05:55:01.634Z,82.00
2023-03-12T05:56:02.033Z,81.00
2023-03-12T05:57:02.074Z,82.00
2023-03-12T05:58:02.167Z,82.00
2023-03-12T05:59:02.059Z,82.00
2023-03-12T06:00:01.849Z,82.00
2023-03-12T06:01:02.289Z,82.00
2023-03-12T06:02:02.998Z,82.00
2023-03-12T06:03:03.173Z,82.00
2023-03-12T06:04:02.851Z,83.00
2023-03-12T06:05:03.344Z,83.00
2023-03-12T06:06:03.103Z,83.00
2023-03-12T06:07:02.922Z,83.00
2023-03-12T06:08:02.612Z,83.00
2023-03-12T06:09:02.949Z,83.00
2023-03-12T06:10:02.925Z,83.00
2023-03-12T06:11:02.856Z,83.00
2023-03-12T06:12:03.451Z,83.00
2023-03-12T06:13:02.985Z,82.00
2023-03-12T06:14:03.060Z,82.00
2023-03-12T06:15:02.797Z,82.00
2023-03-12T06:16:03.151Z,82.00
2023-03-12T06:17:02.460Z,82.00
2023-03-12T06:18:02.598Z,82.00
2023-03-12T06:19:02.943Z,82.00
2023-03-12T06:20:02.621Z,82.00
2023-03-12T06:21:02.948Z,82.00
2023-03-12T06:22:02.970Z,83.00
2023-03-12T06:23:03.543Z,83.00
2023-03-12T06:24:03.013Z,83.00
2023-03-12T06:25:03.499Z,84.00
2023-03-12T06:26:03.326Z,84.00
2023-03-12T06:27:02.303Z,84.00
2023-03-12T06:28:02.320Z,84.00
2023-03-12T06:29:02.219Z,84.00
2023-03-12T06:30:02.825Z,84.00
2023-03-12T06:31:02.875Z,84.00
2023-03-12T06:32:02.510Z,84.00
2023-03-12T06:33:02.397Z,84.00
2023-03-12T06:34:02.366Z,83.00
2023-03-12T06:35:02.650Z,84.00
2023-03-12T06:36:02.934Z,84.00
2023-03-12T06:37:02.746Z,84.00
2023-03-12T06:38:02.653Z,84.00
2023-03-12T06:39:03.088Z,84.00
2023-03-12T06:40:02.890Z,83.00
2023-03-12T06:41:02.841Z,83.00
2023-03-12T06:42:03.217Z,84.00
2023-03-12T06:43:03.206Z,84.00
2023-03-12T06:44:02.667Z,84.00
2023-03-12T06:45:02.761Z,84.00
2023-03-12T06:46:02.833Z,84.00
2023-03-12T06:47:02.654Z,84.00
2023-03-12T06:48:03.073Z,84.00
2023-03-12T06:49:02.670Z,84.00
2023-03-12T06:50:02.543Z,85.00
2023-03-12T06:51:03.038Z,85.00
2023-03-12T06:52:02.751Z,85.00
2023-03-12T06:53:02.895Z,85.00
2023-03-12T06:54:03.004Z,84.00
2023-03-12T06:55:03.079Z,85.00
2023-03-12T06:56:02.833Z,85.00
2023-03-12T06:57:02.451Z,85.00
2023-03-12T06:58:02.341Z,85.00
2023-03-12T06:59:02.594Z,84.00
2023-03-12T07:00:02.294Z,84.00
2023-03-12T07:01:02.683Z,84.00
2023-03-12T07:02:02.555Z,84.00
2023-03-12T07:03:02.429Z,83.00
2023-03-12T07:04:02.933Z,83.00
2023-03-12T07:05:02.586Z,83.00
2023-03-12T07:06:02.761Z,83.00
2023-03-12T07:07:02.572Z,83.00
2023-03-12T07:08:02.641Z,83.00
2023-03-12T07:09:02.811Z,83.00
2023-03-12T07:10:02.444Z,83.00
2023-03-12T07:11:02.919Z,83.00
2023-03-12T07:12:03.091Z,83.00
2023-03-12T07:13:03.079Z,83.00
2023-03-12T07:14:02.631Z,83.00
2023-03-12T07:15:03.257Z,83.00
2023-03-12T07:16:02.726Z,83.00
2023-03-12T07:17:02.103Z,83.00
2023-03-12T07:18:02.185Z,83.00
2023-03-12T07:19:02.618Z,83.00
2023-03-12T07:20:02.424Z,83.00
2023-03-12T07:21:02.476Z,83.00
2023-03-12T07:22:02.736Z,83.00
2023-03-12T07:23:02.755Z,83.00
2023-03-12T07:24:03.176Z,83.00
2023-03-12T07:25:02.638Z,83.00
2023-03-12T07:26:02.840Z,82.00
2023-03-12T07:27:02.305Z,82.00
2023-03-12T07:28:02.102Z,82.00
2023-03-12T07:29:02.610Z,82.00
2023-03-12T07:30:02.514Z,83.00
2023-03-12T07:31:02.479Z,82.00
2023-03-12T07:32:02.537Z,83.00
2023-03-12T07:33:02.739Z,83.00
2023-03-12T07:34:02.886Z,83.00
2023-03-12T07:35:02.521Z,83.00
2023-03-12T07:36:02.263Z,83.00
2023-03-12T07:37:02.903Z,83.00
2023-03-12T07:38:03.182Z,83.00
2023-03-12T07:39:02.727Z,83.00
2023-03-12T07:40:03.293Z,83.00
2023-03-12T07:41:02.817Z,83.00
2023-03-12T07:42:02.939Z,83.00
2023-03-12T07:43:02.754Z,83.00
2023-03-12T07:44:03.036Z,83.00
2023-03-12T07:45:02.752Z,83.00
2023-03-12T07:46:02.875Z,83.00
2023-03-12T07:47:16.562Z,83.00
2023-03-12T07:48:02.488Z,83.00
2023-03-12T07:49:02.150Z,83.00
2023-03-12T07:50:02.337Z,83.00
2023-03-12T07:51:02.653Z,83.00
2023-03-12T07:52:02.664Z,82.00
2023-03-12T07:54:03.071Z,82.00
2023-03-12T07:55:03.278Z,82.00
2023-03-12T07:56:02.633Z,83.00
2023-03-12T07:57:03.167Z,83.00
2023-03-12T07:58:02.978Z,83.00
2023-03-12T07:59:03.256Z,83.00
2023-03-12T08:00:02.895Z,83.00
2023-03-12T08:01:02.681Z,84.00
2023-03-12T08:02:02.150Z,84.00
2023-03-12T08:03:01.818Z,84.00
2023-03-12T08:04:02.031Z,84.00
2023-03-12T08:05:02.008Z,84.00
2023-03-12T08:06:02.334Z,84.00
2023-03-12T08:07:02.483Z,84.00
2023-03-12T08:08:02.328Z,84.00
2023-03-12T08:09:02.040Z,84.00
2023-03-12T08:10:02.096Z,84.00
2023-03-12T08:11:02.432Z,84.00
2023-03-12T08:12:02.777Z,84.00
2023-03-12T08:13:02.718Z,84.00
2023-03-12T08:14:02.913Z,84.00
2023-03-12T08:15:02.527Z,84.00
2023-03-12T08:16:02.798Z,84.00
2023-03-12T08:17:02.838Z,84.00
2023-03-12T08:18:02.498Z,84.00
2023-03-12T08:19:02.509Z,84.00
2023-03-12T08:20:02.870Z,84.00
2023-03-12T08:21:02.869Z,84.00
2023-03-12T08:22:02.297Z,84.00
2023-03-12T08:23:02.443Z,85.00
2023-03-12T08:24:02.558Z,84.00
2023-03-12T08:25:02.142Z,84.00
2023-03-12T08:26:01.859Z,85.00
2023-03-12T08:27:01.953Z,85.00
2023-03-12T08:28:01.924Z,84.00
2023-03-12T08:29:01.643Z,85.00
2023-03-12T08:30:01.730Z,84.00
2023-03-12T08:31:01.812Z,84.00
2023-03-12T08:32:05.392Z,84.00
2023-03-12T08:33:01.913Z,84.00
2023-03-12T08:34:02.473Z,84.00
2023-03-12T08:35:02.420Z,84.00
2023-03-12T08:36:02.478Z,84.00
2023-03-12T08:37:02.564Z,84.00
2023-03-12T08:38:02.657Z,84.00
2023-03-12T08:39:02.230Z,84.00
2023-03-12T08:40:02.068Z,84.00
2023-03-12T08:41:02.488Z,84.00
2023-03-12T08:42:02.498Z,84.00
2023-03-12T08:43:02.720Z,84.00
2023-03-12T08:44:02.548Z,84.00
2023-03-12T08:45:02.459Z,84.00
2023-03-12T08:46:02.787Z,84.00
2023-03-12T08:47:02.252Z,84.00
2023-03-12T08:48:02.316Z,85.00
2023-03-12T08:49:01.884Z,85.00
2023-03-12T08:50:01.882Z,85.00
2023-03-12T08:51:02.227Z,85.00
2023-03-12T08:52:02.516Z,85.00
2023-03-12T08:53:02.360Z,85.00
2023-03-12T08:54:02.146Z,85.00
2023-03-12T08:55:02.352Z,85.00
2023-03-12T08:56:02.431Z,85.00
2023-03-12T08:57:01.444Z,85.00
2023-03-12T08:58:01.463Z,85.00
2023-03-12T08:59:01.608Z,85.00
2023-03-12T09:00:01.682Z,85.00
2023-03-12T09:01:01.460Z,86.00
2023-03-12T09:02:02.700Z,86.00
2023-03-12T09:03:02.628Z,86.00
2023-03-12T09:04:02.785Z,86.00
2023-03-12T09:05:02.384Z,87.00
2023-03-12T09:06:02.421Z,87.00
2023-03-12T09:07:02.959Z,87.00
2023-03-12T09:08:02.410Z,87.00
2023-03-12T09:09:02.888Z,87.00
2023-03-12T09:10:02.512Z,87.00
2023-03-12T09:11:03.047Z,87.00
2023-03-12T09:12:03.377Z,88.00
2023-03-12T09:13:02.917Z,88.00
2023-03-12T09:14:42.457Z,88.00
2023-03-12T09:15:04.825Z,89.00
2023-03-12T09:16:02.860Z,89.00
2023-03-12T09:17:03.537Z,89.00
2023-03-12T09:18:03.760Z,89.00
2023-03-12T09:19:03.296Z,90.00
2023-03-12T09:20:03.707Z,90.00
2023-03-12T09:21:03.350Z,90.00
2023-03-12T09:22:03.049Z,90.00
2023-03-12T09:23:02.502Z,90.00
2023-03-12T09:24:02.960Z,90.00
2023-03-12T09:25:02.619Z,91.00
2023-03-12T09:26:02.864Z,90.00
2023-03-12T09:27:03.278Z,91.00
2023-03-12T09:28:03.073Z,91.00
2023-03-12T09:29:02.986Z,91.00
2023-03-12T09:30:03.044Z,91.00
2023-03-12T09:31:03.146Z,91.00
2023-03-12T09:32:05.845Z,91.00
2023-03-12T09:33:03.064Z,91.00
2023-03-12T09:34:02.929Z,91.00
2023-03-12T09:35:02.735Z,91.00
2023-03-12T09:36:03.251Z,92.00
2023-03-12T09:37:03.390Z,92.00
2023-03-12T09:38:03.303Z,92.00
2023-03-12T09:39:03.229Z,92.00
2023-03-12T09:40:03.336Z,92.00
2023-03-12T09:41:02.824Z,92.00
2023-03-12T09:42:03.405Z,92.00
2023-03-12T09:43:02.817Z,93.00
2023-03-12T09:44:03.052Z,93.00
2023-03-12T09:45:02.787Z,93.00
2023-03-12T09:46:02.976Z,93.00
2023-03-12T09:47:03.605Z,93.00
2023-03-12T09:48:03.591Z,94.00
2023-03-12T09:49:03.561Z,94.00
2023-03-12T09:50:03.421Z,94.00
2023-03-12T09:51:03.228Z,94.00
2023-03-12T09:52:02.381Z,94.00
2023-03-12T09:53:02.836Z,94.00
2023-03-12T09:54:02.760Z,94.00
2023-03-12T09:55:02.712Z,94.00
2023-03-12T09:56:02.640Z,94.00
2023-03-12T09:57:02.358Z,94.00
2023-03-12T09:58:02.936Z,95.00
2023-03-12T09:59:02.405Z,95.00
2023-03-12T10:00:02.418Z,95.00
2023-03-12T10:01:02.868Z,95.00
2023-03-12T10:02:03.390Z,95.00
2023-03-12T10:03:02.983Z,96.00
2023-03-12T10:04:02.839Z,95.00
2023-03-12T10:05:03.120Z,96.00
2023-03-12T10:06:02.952Z,96.00
2023-03-12T10:07:02.271Z,96.00
2023-03-12T10:08:13.772Z,96.00
2023-03-12T10:09:02.496Z,96.00
2023-03-12T10:10:02.802Z,96.00
2023-03-12T10:11:02.493Z,96.00
2023-03-12T10:12:02.898Z,96.00
2023-03-12T10:13:03.497Z,95.00
2023-03-12T10:14:02.987Z,95.00
2023-03-12T10:15:03.390Z,95.00
2023-03-12T10:16:03.255Z,95.00
2023-03-12T10:17:02.387Z,96.00
2023-03-12T10:18:02.740Z,96.00
2023-03-12T10:19:02.253Z,96.00
2023-03-12T10:20:02.611Z,96.00
2023-03-12T10:21:02.665Z,96.00
2023-03-12T10:22:02.347Z,96.00
2023-03-12T10:23:02.530Z,96.00
2023-03-12T10:24:02.677Z,96.00
2023-03-12T10:25:02.547Z,96.00
2023-03-12T10:26:02.850Z,96.00
2023-03-12T10:27:02.959Z,96.00
2023-03-12T10:28:03.496Z,97.00
2023-03-12T10:29:03.457Z,96.00
2023-03-12T10:30:02.994Z,96.00
2023-03-12T10:31:02.864Z,96.00
2023-03-12T10:32:03.111Z,96.00
2023-03-12T10:33:03.209Z,96.00
2023-03-12T10:34:03.213Z,96.00
2023-03-12T10:35:03.210Z,96.00
2023-03-12T10:36:03.009Z,96.00
2023-03-12T10:37:02.219Z,96.00
2023-03-12T10:38:02.387Z,96.00
2023-03-12T10:39:02.254Z,96.00
2023-03-12T10:40:02.420Z,96.00
2023-03-12T10:41:02.472Z,96.00
2023-03-12T10:42:02.263Z,96.00
2023-03-12T10:43:02.243Z,96.00
2023-03-12T10:44:02.070Z,96.00
2023-03-12T10:45:02.440Z,96.00
2023-03-12T10:46:02.282Z,96.00
2023-03-12T10:47:02.924Z,95.00
2023-03-12T10:48:03.358Z,95.00
2023-03-12T10:49:02.837Z,95.00
2023-03-12T10:50:03.024Z,94.00
2023-03-12T10:51:03.266Z,94.00
2023-03-12T10:52:02.302Z,94.00
2023-03-12T10:53:02.130Z,93.00
2023-03-12T10:54:02.899Z,93.00
2023-03-12T10:55:02.449Z,94.00
2023-03-12T10:56:02.260Z,94.00
2023-03-12T10:57:02.792Z,94.00
2023-03-12T10:58:03.046Z,94.00
2023-03-12T10:59:03.189Z,94.00
2023-03-12T11:00:02.626Z,94.00
2023-03-12T11:01:02.741Z,94.00
2023-03-12T11:02:03.750Z,94.00
2023-03-12T11:03:03.583Z,93.00
2023-03-12T11:04:03.384Z,93.00
2023-03-12T11:05:03.184Z,93.00
2023-03-12T11:06:03.902Z,92.00
2023-03-12T11:07:03.474Z,92.00
2023-03-12T11:08:03.290Z,92.00
2023-03-12T11:09:16.243Z,92.00
2023-03-12T11:10:03.448Z,92.00
2023-03-12T11:11:03.345Z,91.00
2023-03-12T11:12:03.016Z,92.00
2023-03-12T11:13:02.942Z,91.00
2023-03-12T11:14:02.961Z,91.00
2023-03-12T11:15:03.083Z,91.00
2023-03-12T11:16:02.947Z,91.00
2023-03-12T11:17:03.476Z,92.00
2023-03-12T11:18:03.245Z,91.00
2023-03-12T11:19:03.954Z,91.00
2023-03-12T11:20:03.227Z,91.00
2023-03-12T11:21:03.459Z,91.00
2023-03-12T11:22:03.000Z,91.00
2023-03-12T11:23:03.227Z,91.00
2023-03-12T11:24:02.896Z,90.00
2023-03-12T11:25:02.766Z,91.00
2023-03-12T11:26:03.171Z,91.00
2023-03-12T11:27:03.619Z,91.00
2023-03-12T11:28:03.924Z,91.00
2023-03-12T11:29:03.480Z,92.00
2023-03-12T11:30:03.374Z,93.00
2023-03-12T11:31:03.943Z,93.00
2023-03-12T11:32:02.573Z,93.00
2023-03-12T11:33:03.013Z,94.00
2023-03-12T11:34:02.455Z,94.00
2023-03-12T11:35:03.062Z,94.00
2023-03-12T11:36:03.077Z,95.00
2023-03-12T11:37:02.977Z,95.00
2023-03-12T11:38:02.772Z,95.00
2023-03-12T11:39:02.665Z,95.00
2023-03-12T11:40:02.730Z,95.00
2023-03-12T11:41:03.202Z,95.00
2023-03-12T11:42:03.491Z,95.00
2023-03-12T11:43:03.332Z,95.00
2023-03-12T11:44:03.198Z,95.00
2023-03-12T11:45:03.769Z,95.00
2023-03-12T11:46:03.374Z,96.00
2023-03-12T11:47:02.961Z,96.00
2023-03-12T11:48:02.789Z,96.00
2023-03-12T11:49:02.613Z,97.00
2023-03-12T11:50:02.503Z,97.00
2023-03-12T11:51:03.141Z,97.00
2023-03-12T11:52:03.285Z,97.00
2023-03-12T11:53:02.945Z,96.00
2023-03-12T11:54:02.802Z,96.00
2023-03-12T11:55:02.781Z,96.00
2023-03-12T11:56:03.017Z,96.00
2023-03-12T11:57:02.769Z,96.00
2023-03-12T11:58:02.489Z,96.00
2023-03-12T11:59:02.866Z,96.00
2023-03-12T12:00:02.716Z,96.00
2023-03-12T12:01:02.570Z,96.00
2023-03-12T12:02:02.236Z,96.00
2023-03-12T12:03:02.217Z,96.00
2023-03-12T12:04:01.849Z,96.00
2023-03-12T12:05:01.939Z,96.00
2023-03-12T12:06:01.783Z,96.00
2023-03-12T12:07:02.601Z,96.00
2023-03-12T12:08:02.103Z,96.00
2023-03-12T12:09:02.663Z,97.00
2023-03-12T12:10:02.257Z,97.00
2023-03-12T12:11:02.094Z,97.00
2023-03-12T12:12:05.306Z,97.00
2023-03-12T12:13:01.839Z,97.00
2023-03-12T12:14:02.234Z,97.00
2023-03-12T12:15:02.044Z,97.00
2023-03-12T12:16:01.729Z,97.00
2023-03-12T12:17:02.255Z,97.00
2023-03-12T12:18:02.132Z,97.00
2023-03-12T12:19:04.449Z,97.00
2023-03-12T12:20:02.244Z,97.00
2023-03-12T12:21:01.655Z,97.00
2023-03-12T12:22:02.817Z,97.00
2023-03-12T12:23:02.583Z,96.00
2023-03-12T12:24:02.665Z,96.00
2023-03-12T12:25:02.275Z,96.00
2023-03-12T12:26:02.471Z,95.00
2023-03-12T12:27:01.756Z,95.00
2023-03-12T12:28:01.863Z,96.00
2023-03-12T12:29:02.337Z,95.00
2023-03-12T12:30:01.938Z,96.00
2023-03-12T12:31:01.803Z,96.00
2023-03-12T12:32:02.250Z,96.00
2023-03-12T12:33:02.654Z,95.00
2023-03-12T12:34:02.536Z,95.00
2023-03-12T12:35:02.218Z,96.00
2023-03-12T12:36:02.856Z,96.00
2023-03-12T12:37:02.786Z,96.00
2023-03-12T12:38:02.075Z,96.00
2023-03-12T12:39:01.897Z,95.00
2023-03-12T12:40:02.173Z,95.00
2023-03-12T12:41:01.984Z,95.00
2023-03-12T12:42:02.034Z,95.00
2023-03-12T12:43:02.578Z,95.00
2023-03-12T12:44:02.845Z,95.00
2023-03-12T12:45:02.443Z,95.00
2023-03-12T12:46:02.439Z,96.00
2023-03-12T12:47:02.800Z,96.00
2023-03-12T12:48:02.199Z,96.00
2023-03-12T12:49:01.973Z,95.00
2023-03-12T12:50:02.398Z,95.00
2023-03-12T12:51:02.129Z,95.00
2023-03-12T12:52:02.208Z,95.00
2023-03-12T12:53:02.213Z,95.00